sensor_id;sensor_type;location;lat;lon;timestamp;temperature;humidity
418;DHT22;49;48.530;9.200;2023-05-19T00:02:24;16.40;30.20
418;DHT22;49;48.530;9.200;2023-05-19T00:04:52;16.40;30.90
418;DHT22;49;48.530;9.200;2023-05-19T00:07:23;16.50;31.50
418;DHT22;49;48.530;9.200;2023-05-19T00:09:51;16.30;32.40
418;DHT22;49;48.530;9.200;2023-05-19T00:12:19;15.90;34.40
418;DHT22;49;48.530;9.200;2023-05-19T00:14:46;15.70;35.80
418;DHT22;49;48.530;9.200;2023-05-19T00:17:13;15.40;37.40
418;DHT22;49;48.530;9.200;2023-05-19T00:19:41;15.60;36.70
418;DHT22;49;48.530;9.200;2023-05-19T00:22:09;15.40;38.50
418;DHT22;49;48.530;9.200;2023-05-19T00:24:37;15.50;37.90
418;DHT22;49;48.530;9.200;2023-05-19T00:27:04;15.50;37.50
418;DHT22;49;48.530;9.200;2023-05-19T00:29:31;15.70;37.30
418;DHT22;49;48.530;9.200;2023-05-19T00:31:58;15.90;35.80
418;DHT22;49;48.530;9.200;2023-05-19T00:34:25;16.40;33.90
418;DHT22;49;48.530;9.200;2023-05-19T00:36:52;16.50;32.50
418;DHT22;49;48.530;9.200;2023-05-19T00:39:19;16.80;31.60
418;DHT22;49;48.530;9.200;2023-05-19T00:41:47;16.70;31.50
418;DHT22;49;48.530;9.200;2023-05-19T00:44:14;16.60;32.20
418;DHT22;49;48.530;9.200;2023-05-19T00:46:41;16.50;32.50
418;DHT22;49;48.530;9.200;2023-05-19T00:49:07;16.50;33.00
418;DHT22;49;48.530;9.200;2023-05-19T00:51:34;16.80;31.60
418;DHT22;49;48.530;9.200;2023-05-19T00:54:02;16.70;31.30
418;DHT22;49;48.530;9.200;2023-05-19T00:56:29;16.60;31.80
418;DHT22;49;48.530;9.200;2023-05-19T00:58:58;16.60;31.60
418;DHT22;49;48.530;9.200;2023-05-19T01:01:26;16.60;31.20
418;DHT22;49;48.530;9.200;2023-05-19T01:03:53;16.50;31.30
418;DHT22;49;48.530;9.200;2023-05-19T01:06:23;16.50;31.10
418;DHT22;49;48.530;9.200;2023-05-19T01:08:53;16.30;32.30
418;DHT22;49;48.530;9.200;2023-05-19T01:11:21;16.30;32.50
418;DHT22;49;48.530;9.200;2023-05-19T01:13:49;16.40;31.90
418;DHT22;49;48.530;9.200;2023-05-19T01:16:24;16.20;31.90
418;DHT22;49;48.530;9.200;2023-05-19T01:19:00;16.10;32.10
418;DHT22;49;48.530;9.200;2023-05-19T01:21:54;16.20;31.50
418;DHT22;49;48.530;9.200;2023-05-19T01:24:40;16.20;31.50
418;DHT22;49;48.530;9.200;2023-05-19T01:27:32;16.30;31.00
418;DHT22;49;48.530;9.200;2023-05-19T01:30:17;16.30;31.00
418;DHT22;49;48.530;9.200;2023-05-19T01:32:52;16.50;30.00
418;DHT22;49;48.530;9.200;2023-05-19T01:35:22;16.50;30.50
418;DHT22;49;48.530;9.200;2023-05-19T01:37:51;16.40;30.00
418;DHT22;49;48.530;9.200;2023-05-19T01:40:20;16.10;30.50
418;DHT22;49;48.530;9.200;2023-05-19T01:42:50;16.10;31.50
418;DHT22;49;48.530;9.200;2023-05-19T01:45:19;16.30;31.20
418;DHT22;49;48.530;9.200;2023-05-19T01:47:49;16.30;31.10
418;DHT22;49;48.530;9.200;2023-05-19T01:50:16;15.80;33.30
418;DHT22;49;48.530;9.200;2023-05-19T01:52:43;15.90;33.00
418;DHT22;49;48.530;9.200;2023-05-19T01:55:10;15.80;34.00
418;DHT22;49;48.530;9.200;2023-05-19T01:57:44;15.90;33.50
418;DHT22;49;48.530;9.200;2023-05-19T02:00:17;16.00;33.80
418;DHT22;49;48.530;9.200;2023-05-19T02:02:56;16.10;32.60
418;DHT22;49;48.530;9.200;2023-05-19T02:05:30;15.90;32.50
418;DHT22;49;48.530;9.200;2023-05-19T02:08:10;16.10;31.60
418;DHT22;49;48.530;9.200;2023-05-19T02:10:40;16.20;30.90
418;DHT22;49;48.530;9.200;2023-05-19T02:13:12;16.10;31.20
418;DHT22;49;48.530;9.200;2023-05-19T02:15:41;16.20;30.70
418;DHT22;49;48.530;9.200;2023-05-19T02:18:10;16.40;30.60
418;DHT22;49;48.530;9.200;2023-05-19T02:20:38;16.10;31.90
418;DHT22;49;48.530;9.200;2023-05-19T02:23:05;16.20;31.20
418;DHT22;49;48.530;9.200;2023-05-19T02:25:32;16.30;30.50
418;DHT22;49;48.530;9.200;2023-05-19T02:27:59;16.40;30.30
418;DHT22;49;48.530;9.200;2023-05-19T02:30:26;16.10;31.40
418;DHT22;49;48.530;9.200;2023-05-19T02:32:53;15.90;32.80
418;DHT22;49;48.530;9.200;2023-05-19T02:35:21;15.40;33.10
418;DHT22;49;48.530;9.200;2023-05-19T02:37:48;15.10;35.20
418;DHT22;49;48.530;9.200;2023-05-19T02:40:16;15.30;34.00
418;DHT22;49;48.530;9.200;2023-05-19T02:42:43;15.70;32.30
418;DHT22;49;48.530;9.200;2023-05-19T02:45:10;15.80;31.20
418;DHT22;49;48.530;9.200;2023-05-19T02:47:37;15.50;33.20
418;DHT22;49;48.530;9.200;2023-05-19T02:50:06;15.30;33.10
418;DHT22;49;48.530;9.200;2023-05-19T02:52:35;15.20;35.20
418;DHT22;49;48.530;9.200;2023-05-19T02:55:02;15.20;35.60
418;DHT22;49;48.530;9.200;2023-05-19T02:57:29;15.20;36.40
418;DHT22;49;48.530;9.200;2023-05-19T02:59:57;15.10;35.90
418;DHT22;49;48.530;9.200;2023-05-19T03:02:24;15.10;36.00
418;DHT22;49;48.530;9.200;2023-05-19T03:04:51;14.90;36.20
418;DHT22;49;48.530;9.200;2023-05-19T03:07:18;14.80;37.90
418;DHT22;49;48.530;9.200;2023-05-19T03:09:51;14.90;37.80
418;DHT22;49;48.530;9.200;2023-05-19T03:12:18;15.20;37.10
418;DHT22;49;48.530;9.200;2023-05-19T03:14:45;15.30;36.90
418;DHT22;49;48.530;9.200;2023-05-19T03:17:12;15.30;36.80
418;DHT22;49;48.530;9.200;2023-05-19T03:19:39;15.40;36.30
418;DHT22;49;48.530;9.200;2023-05-19T03:22:07;15.30;36.80
418;DHT22;49;48.530;9.200;2023-05-19T03:24:33;15.30;36.50
418;DHT22;49;48.530;9.200;2023-05-19T03:27:02;15.30;37.40
418;DHT22;49;48.530;9.200;2023-05-19T03:29:30;15.40;37.40
418;DHT22;49;48.530;9.200;2023-05-19T03:31:57;15.30;38.20
418;DHT22;49;48.530;9.200;2023-05-19T03:34:25;15.30;38.80
418;DHT22;49;48.530;9.200;2023-05-19T03:36:52;15.20;40.10
418;DHT22;49;48.530;9.200;2023-05-19T03:39:19;15.10;40.10
418;DHT22;49;48.530;9.200;2023-05-19T03:41:46;15.30;40.00
418;DHT22;49;48.530;9.200;2023-05-19T03:44:14;15.20;40.80
418;DHT22;49;48.530;9.200;2023-05-19T03:46:41;15.20;40.00
418;DHT22;49;48.530;9.200;2023-05-19T03:49:08;15.00;40.90
418;DHT22;49;48.530;9.200;2023-05-19T03:51:36;15.10;40.10
418;DHT22;49;48.530;9.200;2023-05-19T03:54:03;15.00;40.00
418;DHT22;49;48.530;9.200;2023-05-19T03:56:30;15.00;40.20
418;DHT22;49;48.530;9.200;2023-05-19T03:58:58;14.90;40.50
418;DHT22;49;48.530;9.200;2023-05-19T04:01:27;15.00;40.30
418;DHT22;49;48.530;9.200;2023-05-19T04:03:54;15.20;39.60
418;DHT22;49;48.530;9.200;2023-05-19T04:06:21;15.20;39.30
418;DHT22;49;48.530;9.200;2023-05-19T04:08:47;15.30;39.00
418;DHT22;49;48.530;9.200;2023-05-19T04:11:15;15.30;39.10
418;DHT22;49;48.530;9.200;2023-05-19T04:13:44;15.30;39.00
418;DHT22;49;48.530;9.200;2023-05-19T04:16:11;15.50;38.20
418;DHT22;49;48.530;9.200;2023-05-19T04:18:40;15.40;37.80
418;DHT22;49;48.530;9.200;2023-05-19T04:21:06;15.60;37.30
418;DHT22;49;48.530;9.200;2023-05-19T04:23:33;15.60;36.50
418;DHT22;49;48.530;9.200;2023-05-19T04:26:00;15.50;37.80
418;DHT22;49;48.530;9.200;2023-05-19T04:28:28;15.60;37.10
418;DHT22;49;48.530;9.200;2023-05-19T04:30:55;15.60;37.40
418;DHT22;49;48.530;9.200;2023-05-19T04:33:22;15.20;38.50
418;DHT22;49;48.530;9.200;2023-05-19T04:35:51;15.10;39.20
418;DHT22;49;48.530;9.200;2023-05-19T04:38:18;14.90;39.90
418;DHT22;49;48.530;9.200;2023-05-19T04:40:46;15.30;38.60
418;DHT22;49;48.530;9.200;2023-05-19T04:43:16;15.20;39.00
418;DHT22;49;48.530;9.200;2023-05-19T04:45:43;15.30;38.80
418;DHT22;49;48.530;9.200;2023-05-19T04:48:11;15.50;38.00
418;DHT22;49;48.530;9.200;2023-05-19T04:50:39;15.60;37.20
418;DHT22;49;48.530;9.200;2023-05-19T04:53:14;15.60;36.30
418;DHT22;49;48.530;9.200;2023-05-19T04:55:41;15.10;39.10
418;DHT22;49;48.530;9.200;2023-05-19T04:58:08;15.00;40.00
418;DHT22;49;48.530;9.200;2023-05-19T05:00:36;15.40;40.40
418;DHT22;49;48.530;9.200;2023-05-19T05:03:03;15.70;38.30
418;DHT22;49;48.530;9.200;2023-05-19T05:05:31;15.90;36.90
418;DHT22;49;48.530;9.200;2023-05-19T05:07:58;15.70;37.00
418;DHT22;49;48.530;9.200;2023-05-19T05:10:27;15.70;37.30
418;DHT22;49;48.530;9.200;2023-05-19T05:12:54;15.70;37.20
418;DHT22;49;48.530;9.200;2023-05-19T05:15:22;15.80;37.40
418;DHT22;49;48.530;9.200;2023-05-19T05:17:49;15.60;38.00
418;DHT22;49;48.530;9.200;2023-05-19T05:20:17;15.90;37.70
418;DHT22;49;48.530;9.200;2023-05-19T05:22:45;15.80;37.00
418;DHT22;49;48.530;9.200;2023-05-19T05:25:14;15.70;38.40
418;DHT22;49;48.530;9.200;2023-05-19T05:27:43;15.70;37.30
418;DHT22;49;48.530;9.200;2023-05-19T05:30:10;15.80;37.10
418;DHT22;49;48.530;9.200;2023-05-19T05:32:37;15.70;37.90
418;DHT22;49;48.530;9.200;2023-05-19T05:35:05;16.30;36.90
418;DHT22;49;48.530;9.200;2023-05-19T05:37:32;17.20;32.90
418;DHT22;49;48.530;9.200;2023-05-19T05:39:59;17.90;30.80
418;DHT22;49;48.530;9.200;2023-05-19T05:42:26;18.20;30.90
418;DHT22;49;48.530;9.200;2023-05-19T05:44:55;18.70;26.90
418;DHT22;49;48.530;9.200;2023-05-19T05:47:22;19.20;28.00
418;DHT22;49;48.530;9.200;2023-05-19T05:49:50;20.50;24.40
418;DHT22;49;48.530;9.200;2023-05-19T05:52:17;21.10;22.80
418;DHT22;49;48.530;9.200;2023-05-19T05:54:47;21.50;20.80
418;DHT22;49;48.530;9.200;2023-05-19T05:57:14;21.30;21.50
418;DHT22;49;48.530;9.200;2023-05-19T05:59:41;21.40;20.80
418;DHT22;49;48.530;9.200;2023-05-19T06:02:11;21.30;20.00
418;DHT22;49;48.530;9.200;2023-05-19T06:04:38;21.30;19.90
418;DHT22;49;48.530;9.200;2023-05-19T06:07:05;20.90;20.30
418;DHT22;49;48.530;9.200;2023-05-19T06:09:32;20.50;21.80
418;DHT22;49;48.530;9.200;2023-05-19T06:12:00;20.10;21.50
418;DHT22;49;48.530;9.200;2023-05-19T06:14:27;19.60;22.30
418;DHT22;49;48.530;9.200;2023-05-19T06:16:53;19.40;23.60
418;DHT22;49;48.530;9.200;2023-05-19T06:19:22;19.10;23.40
418;DHT22;49;48.530;9.200;2023-05-19T06:21:50;18.70;24.50
418;DHT22;49;48.530;9.200;2023-05-19T06:24:17;18.20;25.70
418;DHT22;49;48.530;9.200;2023-05-19T06:26:44;17.40;28.10
418;DHT22;49;48.530;9.200;2023-05-19T06:29:11;17.40;28.40
418;DHT22;49;48.530;9.200;2023-05-19T06:31:38;17.60;28.20
418;DHT22;49;48.530;9.200;2023-05-19T06:34:05;17.70;28.30
418;DHT22;49;48.530;9.200;2023-05-19T06:36:33;17.40;28.60
418;DHT22;49;48.530;9.200;2023-05-19T06:39:00;17.20;29.50
418;DHT22;49;48.530;9.200;2023-05-19T06:41:27;17.00;31.20
418;DHT22;49;48.530;9.200;2023-05-19T06:43:54;17.90;28.40
418;DHT22;49;48.530;9.200;2023-05-19T06:46:21;18.40;27.30
418;DHT22;49;48.530;9.200;2023-05-19T06:48:48;18.90;26.90
418;DHT22;49;48.530;9.200;2023-05-19T06:51:15;19.10;25.10
418;DHT22;49;48.530;9.200;2023-05-19T06:53:47;19.00;23.90
418;DHT22;49;48.530;9.200;2023-05-19T06:56:29;18.30;25.10
418;DHT22;49;48.530;9.200;2023-05-19T06:58:57;17.80;25.90
418;DHT22;49;48.530;9.200;2023-05-19T07:01:24;18.00;26.60
418;DHT22;49;48.530;9.200;2023-05-19T07:03:52;17.80;25.80
418;DHT22;49;48.530;9.200;2023-05-19T07:06:19;18.00;26.50
418;DHT22;49;48.530;9.200;2023-05-19T07:08:47;18.30;25.00
418;DHT22;49;48.530;9.200;2023-05-19T07:11:14;17.60;26.50
418;DHT22;49;48.530;9.200;2023-05-19T07:13:40;17.20;27.90
418;DHT22;49;48.530;9.200;2023-05-19T07:16:07;17.70;28.30
418;DHT22;49;48.530;9.200;2023-05-19T07:18:34;18.00;26.60
418;DHT22;49;48.530;9.200;2023-05-19T07:21:01;17.40;26.90
418;DHT22;49;48.530;9.200;2023-05-19T07:23:28;16.80;28.60
418;DHT22;49;48.530;9.200;2023-05-19T07:25:56;16.80;28.60
418;DHT22;49;48.530;9.200;2023-05-19T07:28:23;16.60;29.50
418;DHT22;49;48.530;9.200;2023-05-19T07:30:50;16.60;29.10
418;DHT22;49;48.530;9.200;2023-05-19T07:33:17;16.50;30.00
418;DHT22;49;48.530;9.200;2023-05-19T07:35:44;16.40;30.10
418;DHT22;49;48.530;9.200;2023-05-19T07:38:13;16.70;31.40
418;DHT22;49;48.530;9.200;2023-05-19T07:40:40;16.70;29.20
418;DHT22;49;48.530;9.200;2023-05-19T07:43:08;17.00;29.90
418;DHT22;49;48.530;9.200;2023-05-19T07:45:35;17.70;28.30
418;DHT22;49;48.530;9.200;2023-05-19T07:48:03;17.80;28.40
418;DHT22;49;48.530;9.200;2023-05-19T07:50:31;17.80;27.40
418;DHT22;49;48.530;9.200;2023-05-19T07:52:58;17.20;29.60
418;DHT22;49;48.530;9.200;2023-05-19T07:55:25;16.60;31.60
418;DHT22;49;48.530;9.200;2023-05-19T07:57:51;16.60;31.30
418;DHT22;49;48.530;9.200;2023-05-19T08:00:20;16.70;31.00
418;DHT22;49;48.530;9.200;2023-05-19T08:02:47;16.90;30.80
418;DHT22;49;48.530;9.200;2023-05-19T08:05:14;17.10;29.40
418;DHT22;49;48.530;9.200;2023-05-19T08:07:40;17.10;29.80
418;DHT22;49;48.530;9.200;2023-05-19T08:10:08;17.10;29.70
418;DHT22;49;48.530;9.200;2023-05-19T08:12:35;16.80;31.20
418;DHT22;49;48.530;9.200;2023-05-19T08:15:02;17.10;29.90
418;DHT22;49;48.530;9.200;2023-05-19T08:17:30;17.00;31.10
418;DHT22;49;48.530;9.200;2023-05-19T08:19:57;16.70;30.50
418;DHT22;49;48.530;9.200;2023-05-19T08:22:24;16.70;31.30
418;DHT22;49;48.530;9.200;2023-05-19T08:24:51;16.50;32.90
418;DHT22;49;48.530;9.200;2023-05-19T08:27:18;16.60;32.60
418;DHT22;49;48.530;9.200;2023-05-19T08:29:45;16.70;30.90
418;DHT22;49;48.530;9.200;2023-05-19T08:32:12;16.50;32.50
418;DHT22;49;48.530;9.200;2023-05-19T08:34:40;16.60;32.80
418;DHT22;49;48.530;9.200;2023-05-19T08:37:07;16.80;32.40
418;DHT22;49;48.530;9.200;2023-05-19T08:39:34;16.80;31.30
418;DHT22;49;48.530;9.200;2023-05-19T08:42:01;16.50;34.10
418;DHT22;49;48.530;9.200;2023-05-19T08:44:28;16.60;31.70
418;DHT22;49;48.530;9.200;2023-05-19T08:46:58;16.50;32.20
418;DHT22;49;48.530;9.200;2023-05-19T08:49:27;16.30;33.20
418;DHT22;49;48.530;9.200;2023-05-19T08:52:04;16.20;33.00
418;DHT22;49;48.530;9.200;2023-05-19T08:54:40;15.90;35.40
418;DHT22;49;48.530;9.200;2023-05-19T08:57:09;16.30;34.30
418;DHT22;49;48.530;9.200;2023-05-19T08:59:36;16.60;33.00
418;DHT22;49;48.530;9.200;2023-05-19T09:02:04;17.00;30.50
418;DHT22;49;48.530;9.200;2023-05-19T09:04:31;16.90;31.80
418;DHT22;49;48.530;9.200;2023-05-19T09:07:00;16.90;31.10
418;DHT22;49;48.530;9.200;2023-05-19T09:09:28;16.60;31.60
418;DHT22;49;48.530;9.200;2023-05-19T09:11:56;16.80;31.90
418;DHT22;49;48.530;9.200;2023-05-19T09:14:23;16.70;31.90
418;DHT22;49;48.530;9.200;2023-05-19T09:16:50;16.90;30.80
418;DHT22;49;48.530;9.200;2023-05-19T09:19:17;17.20;29.50
418;DHT22;49;48.530;9.200;2023-05-19T09:21:45;17.10;30.50
418;DHT22;49;48.530;9.200;2023-05-19T09:24:13;16.80;30.60
418;DHT22;49;48.530;9.200;2023-05-19T09:26:42;16.80;30.90
418;DHT22;49;48.530;9.200;2023-05-19T09:29:12;16.50;31.70
418;DHT22;49;48.530;9.200;2023-05-19T09:31:47;16.70;32.30
418;DHT22;49;48.530;9.200;2023-05-19T09:34:15;17.10;31.10
418;DHT22;49;48.530;9.200;2023-05-19T09:36:42;17.50;29.90
418;DHT22;49;48.530;9.200;2023-05-19T09:39:14;17.80;28.80
418;DHT22;49;48.530;9.200;2023-05-19T09:41:41;17.20;29.20
418;DHT22;49;48.530;9.200;2023-05-19T09:44:12;16.70;32.40
418;DHT22;49;48.530;9.200;2023-05-19T09:46:47;16.60;32.60
418;DHT22;49;48.530;9.200;2023-05-19T09:49:18;17.10;31.00
418;DHT22;49;48.530;9.200;2023-05-19T09:51:49;17.20;30.60
418;DHT22;49;48.530;9.200;2023-05-19T09:54:19;17.10;29.90
418;DHT22;49;48.530;9.200;2023-05-19T09:56:50;16.70;31.80
418;DHT22;49;48.530;9.200;2023-05-19T09:59:19;16.80;31.50
418;DHT22;49;48.530;9.200;2023-05-19T10:01:50;16.90;31.70
418;DHT22;49;48.530;9.200;2023-05-19T10:04:18;16.80;31.20
418;DHT22;49;48.530;9.200;2023-05-19T10:06:47;16.50;31.70
418;DHT22;49;48.530;9.200;2023-05-19T10:09:21;16.20;33.80
418;DHT22;49;48.530;9.200;2023-05-19T10:11:48;16.40;32.70
418;DHT22;49;48.530;9.200;2023-05-19T10:14:18;16.50;33.80
418;DHT22;49;48.530;9.200;2023-05-19T10:16:49;16.60;32.50
418;DHT22;49;48.530;9.200;2023-05-19T10:19:19;16.50;32.50
418;DHT22;49;48.530;9.200;2023-05-19T10:21:47;16.70;32.10
418;DHT22;49;48.530;9.200;2023-05-19T10:24:14;17.20;30.40
418;DHT22;49;48.530;9.200;2023-05-19T10:26:44;17.10;29.90
418;DHT22;49;48.530;9.200;2023-05-19T10:29:15;16.80;30.40
418;DHT22;49;48.530;9.200;2023-05-19T10:31:44;16.70;30.30
418;DHT22;49;48.530;9.200;2023-05-19T10:34:26;16.80;30.50
418;DHT22;49;48.530;9.200;2023-05-19T10:37:07;17.20;29.80
418;DHT22;49;48.530;9.200;2023-05-19T10:39:41;17.40;29.60
418;DHT22;49;48.530;9.200;2023-05-19T10:42:14;17.10;30.00
418;DHT22;49;48.530;9.200;2023-05-19T10:44:55;16.70;30.80
418;DHT22;49;48.530;9.200;2023-05-19T10:47:24;16.60;30.10
418;DHT22;49;48.530;9.200;2023-05-19T10:49:51;16.60;31.30
418;DHT22;49;48.530;9.200;2023-05-19T10:52:20;17.00;30.60
418;DHT22;49;48.530;9.200;2023-05-19T10:54:48;17.00;30.30
418;DHT22;49;48.530;9.200;2023-05-19T10:57:17;17.00;30.40
418;DHT22;49;48.530;9.200;2023-05-19T10:59:45;16.70;30.50
418;DHT22;49;48.530;9.200;2023-05-19T11:02:38;17.00;31.20
418;DHT22;49;48.530;9.200;2023-05-19T11:05:09;16.90;29.70
418;DHT22;49;48.530;9.200;2023-05-19T11:07:40;16.80;32.00
418;DHT22;49;48.530;9.200;2023-05-19T11:10:09;16.90;32.20
418;DHT22;49;48.530;9.200;2023-05-19T11:12:41;17.40;30.20
418;DHT22;49;48.530;9.200;2023-05-19T11:15:13;17.40;29.00
418;DHT22;49;48.530;9.200;2023-05-19T11:17:41;17.10;30.70
418;DHT22;49;48.530;9.200;2023-05-19T11:20:11;17.20;30.90
418;DHT22;49;48.530;9.200;2023-05-19T11:23:03;17.30;30.00
418;DHT22;49;48.530;9.200;2023-05-19T11:25:47;17.50;29.50
418;DHT22;49;48.530;9.200;2023-05-19T11:28:19;17.70;28.30
418;DHT22;49;48.530;9.200;2023-05-19T11:30:53;17.10;28.80
418;DHT22;49;48.530;9.200;2023-05-19T11:33:22;16.70;30.90
418;DHT22;49;48.530;9.200;2023-05-19T11:35:52;16.70;30.80
418;DHT22;49;48.530;9.200;2023-05-19T11:38:20;16.80;29.60
418;DHT22;49;48.530;9.200;2023-05-19T11:40:48;16.40;31.80
418;DHT22;49;48.530;9.200;2023-05-19T11:43:21;16.90;30.50
418;DHT22;49;48.530;9.200;2023-05-19T11:45:48;16.90;30.50
418;DHT22;49;48.530;9.200;2023-05-19T11:48:16;17.10;29.80
418;DHT22;49;48.530;9.200;2023-05-19T11:50:46;17.20;29.80
418;DHT22;49;48.530;9.200;2023-05-19T11:53:13;16.80;30.80
418;DHT22;49;48.530;9.200;2023-05-19T11:55:44;17.00;30.20
418;DHT22;49;48.530;9.200;2023-05-19T11:58:12;17.10;29.70
418;DHT22;49;48.530;9.200;2023-05-19T12:00:42;17.40;29.80
418;DHT22;49;48.530;9.200;2023-05-19T12:03:10;17.70;28.30
418;DHT22;49;48.530;9.200;2023-05-19T12:05:41;17.10;28.90
418;DHT22;49;48.530;9.200;2023-05-19T12:08:08;17.10;29.30
418;DHT22;49;48.530;9.200;2023-05-19T12:10:36;17.20;29.70
418;DHT22;49;48.530;9.200;2023-05-19T12:13:04;17.00;29.30
418;DHT22;49;48.530;9.200;2023-05-19T12:15:33;17.20;29.70
418;DHT22;49;48.530;9.200;2023-05-19T12:18:02;17.30;29.50
418;DHT22;49;48.530;9.200;2023-05-19T12:20:30;17.20;29.00
418;DHT22;49;48.530;9.200;2023-05-19T12:23:00;17.20;30.00
418;DHT22;49;48.530;9.200;2023-05-19T12:25:28;17.20;29.70
418;DHT22;49;48.530;9.200;2023-05-19T12:27:57;17.40;28.80
418;DHT22;49;48.530;9.200;2023-05-19T12:30:25;17.10;29.70
418;DHT22;49;48.530;9.200;2023-05-19T12:32:53;16.90;29.90
418;DHT22;49;48.530;9.200;2023-05-19T12:35:25;17.10;29.70
418;DHT22;49;48.530;9.200;2023-05-19T12:37:52;17.10;29.10
418;DHT22;49;48.530;9.200;2023-05-19T12:40:19;17.50;28.40
418;DHT22;49;48.530;9.200;2023-05-19T12:42:47;17.20;28.80
418;DHT22;49;48.530;9.200;2023-05-19T12:45:19;17.50;28.30
418;DHT22;49;48.530;9.200;2023-05-19T12:47:48;17.80;28.00
418;DHT22;49;48.530;9.200;2023-05-19T12:50:15;17.50;28.20
418;DHT22;49;48.530;9.200;2023-05-19T12:52:45;17.40;28.70
418;DHT22;49;48.530;9.200;2023-05-19T12:55:13;17.40;29.30
418;DHT22;49;48.530;9.200;2023-05-19T12:57:42;17.70;28.30
418;DHT22;49;48.530;9.200;2023-05-19T13:00:13;17.90;28.10
418;DHT22;49;48.530;9.200;2023-05-19T13:02:56;18.50;27.20
418;DHT22;49;48.530;9.200;2023-05-19T13:05:23;18.50;26.80
418;DHT22;49;48.530;9.200;2023-05-19T13:07:56;18.50;25.60
418;DHT22;49;48.530;9.200;2023-05-19T13:10:24;18.70;25.30
418;DHT22;49;48.530;9.200;2023-05-19T13:12:53;19.00;26.00
418;DHT22;49;48.530;9.200;2023-05-19T13:15:21;19.10;24.90
418;DHT22;49;48.530;9.200;2023-05-19T13:17:49;18.40;25.30
418;DHT22;49;48.530;9.200;2023-05-19T13:20:16;17.80;26.40
418;DHT22;49;48.530;9.200;2023-05-19T13:22:43;17.60;27.50
418;DHT22;49;48.530;9.200;2023-05-19T13:25:11;17.70;27.30
418;DHT22;49;48.530;9.200;2023-05-19T13:27:39;17.70;27.30
418;DHT22;49;48.530;9.200;2023-05-19T13:30:07;18.10;26.70
418;DHT22;49;48.530;9.200;2023-05-19T13:32:34;18.70;25.90
418;DHT22;49;48.530;9.200;2023-05-19T13:35:01;19.20;24.40
418;DHT22;49;48.530;9.200;2023-05-19T13:37:28;19.40;24.50
418;DHT22;49;48.530;9.200;2023-05-19T13:39:55;19.20;24.60
418;DHT22;49;48.530;9.200;2023-05-19T13:42:24;18.80;25.20
418;DHT22;49;48.530;9.200;2023-05-19T13:44:53;18.50;25.20
418;DHT22;49;48.530;9.200;2023-05-19T13:47:21;18.20;26.50
418;DHT22;49;48.530;9.200;2023-05-19T13:49:48;18.20;26.10
418;DHT22;49;48.530;9.200;2023-05-19T13:52:16;18.30;26.60
418;DHT22;49;48.530;9.200;2023-05-19T13:54:43;18.70;25.00
418;DHT22;49;48.530;9.200;2023-05-19T13:57:10;18.40;26.40
418;DHT22;49;48.530;9.200;2023-05-19T13:59:39;18.90;25.40
418;DHT22;49;48.530;9.200;2023-05-19T14:02:07;18.70;25.00
418;DHT22;49;48.530;9.200;2023-05-19T14:04:35;18.60;26.30
418;DHT22;49;48.530;9.200;2023-05-19T14:07:03;18.20;26.00
418;DHT22;49;48.530;9.200;2023-05-19T14:09:30;18.10;26.40
418;DHT22;49;48.530;9.200;2023-05-19T14:11:57;17.90;27.70
418;DHT22;49;48.530;9.200;2023-05-19T14:14:24;17.50;27.90
418;DHT22;49;48.530;9.200;2023-05-19T14:16:53;17.50;27.40
418;DHT22;49;48.530;9.200;2023-05-19T14:19:20;17.70;28.30
418;DHT22;49;48.530;9.200;2023-05-19T14:21:48;18.20;26.90
418;DHT22;49;48.530;9.200;2023-05-19T14:24:15;18.00;27.40
418;DHT22;49;48.530;9.200;2023-05-19T14:26:42;18.30;27.40
418;DHT22;49;48.530;9.200;2023-05-19T14:29:10;18.60;26.80
418;DHT22;49;48.530;9.200;2023-05-19T14:31:37;18.70;26.10
418;DHT22;49;48.530;9.200;2023-05-19T14:34:07;18.10;26.70
418;DHT22;49;48.530;9.200;2023-05-19T14:36:34;18.10;27.20
418;DHT22;49;48.530;9.200;2023-05-19T14:39:04;18.50;26.70
418;DHT22;49;48.530;9.200;2023-05-19T14:41:33;18.50;26.80
418;DHT22;49;48.530;9.200;2023-05-19T14:43:59;18.30;26.90
418;DHT22;49;48.530;9.200;2023-05-19T14:46:26;17.90;27.40
418;DHT22;49;48.530;9.200;2023-05-19T14:48:53;18.20;27.80
418;DHT22;49;48.530;9.200;2023-05-19T14:51:22;18.60;27.00
418;DHT22;49;48.530;9.200;2023-05-19T14:53:50;18.90;26.20
418;DHT22;49;48.530;9.200;2023-05-19T14:56:17;18.60;26.70
418;DHT22;49;48.530;9.200;2023-05-19T14:58:44;18.20;27.20
418;DHT22;49;48.530;9.200;2023-05-19T15:01:11;18.40;27.10
418;DHT22;49;48.530;9.200;2023-05-19T15:03:38;18.80;26.10
418;DHT22;49;48.530;9.200;2023-05-19T15:06:07;18.90;25.60
418;DHT22;49;48.530;9.200;2023-05-19T15:08:36;19.20;25.30
418;DHT22;49;48.530;9.200;2023-05-19T15:11:05;18.60;26.50
418;DHT22;49;48.530;9.200;2023-05-19T15:13:32;19.00;25.70
418;DHT22;49;48.530;9.200;2023-05-19T15:15:59;19.20;25.20
418;DHT22;49;48.530;9.200;2023-05-19T15:18:26;18.80;25.40
418;DHT22;49;48.530;9.200;2023-05-19T15:20:53;18.60;26.40
418;DHT22;49;48.530;9.200;2023-05-19T15:23:20;18.90;26.30
418;DHT22;49;48.530;9.200;2023-05-19T15:25:48;18.80;26.10
418;DHT22;49;48.530;9.200;2023-05-19T15:28:15;18.50;26.60
418;DHT22;49;48.530;9.200;2023-05-19T15:30:42;18.50;26.60
418;DHT22;49;48.530;9.200;2023-05-19T15:33:10;18.90;26.40
418;DHT22;49;48.530;9.200;2023-05-19T15:35:37;19.40;25.40
418;DHT22;49;48.530;9.200;2023-05-19T15:38:04;19.70;24.40
418;DHT22;49;48.530;9.200;2023-05-19T15:40:32;20.20;24.30
418;DHT22;49;48.530;9.200;2023-05-19T15:43:00;20.40;23.50
418;DHT22;49;48.530;9.200;2023-05-19T15:45:27;20.30;23.40
418;DHT22;49;48.530;9.200;2023-05-19T15:47:54;20.20;23.10
418;DHT22;49;48.530;9.200;2023-05-19T15:50:21;19.90;23.90
418;DHT22;49;48.530;9.200;2023-05-19T15:52:48;19.60;23.80
418;DHT22;49;48.530;9.200;2023-05-19T15:55:15;19.20;24.70
418;DHT22;49;48.530;9.200;2023-05-19T15:57:42;19.30;25.30
418;DHT22;49;48.530;9.200;2023-05-19T16:00:11;19.80;24.80
418;DHT22;49;48.530;9.200;2023-05-19T16:02:39;19.50;24.40
418;DHT22;49;48.530;9.200;2023-05-19T16:05:06;19.50;23.70
418;DHT22;49;48.530;9.200;2023-05-19T16:07:33;19.40;24.20
418;DHT22;49;48.530;9.200;2023-05-19T16:10:00;19.60;23.80
418;DHT22;49;48.530;9.200;2023-05-19T16:12:27;19.30;24.20
418;DHT22;49;48.530;9.200;2023-05-19T16:14:54;19.60;24.40
418;DHT22;49;48.530;9.200;2023-05-19T16:17:23;19.60;24.90
418;DHT22;49;48.530;9.200;2023-05-19T16:19:50;19.60;23.80
418;DHT22;49;48.530;9.200;2023-05-19T16:22:17;19.70;24.80
418;DHT22;49;48.530;9.200;2023-05-19T16:24:44;20.20;24.20
418;DHT22;49;48.530;9.200;2023-05-19T16:27:11;20.20;23.80
418;DHT22;49;48.530;9.200;2023-05-19T16:29:38;19.70;23.80
418;DHT22;49;48.530;9.200;2023-05-19T16:32:06;19.30;25.20
418;DHT22;49;48.530;9.200;2023-05-19T16:34:37;19.20;24.30
418;DHT22;49;48.530;9.200;2023-05-19T16:37:03;19.00;25.60
418;DHT22;49;48.530;9.200;2023-05-19T16:39:31;19.40;24.80
418;DHT22;49;48.530;9.200;2023-05-19T16:42:00;19.80;24.10
418;DHT22;49;48.530;9.200;2023-05-19T16:44:27;20.10;24.60
418;DHT22;49;48.530;9.200;2023-05-19T16:46:54;20.30;23.30
418;DHT22;49;48.530;9.200;2023-05-19T16:49:21;20.10;23.40
418;DHT22;49;48.530;9.200;2023-05-19T16:51:50;19.60;24.00
418;DHT22;49;48.530;9.200;2023-05-19T16:54:18;19.60;24.30
418;DHT22;49;48.530;9.200;2023-05-19T16:56:46;19.50;24.30
418;DHT22;49;48.530;9.200;2023-05-19T16:59:13;19.90;24.50
418;DHT22;49;48.530;9.200;2023-05-19T17:01:40;20.30;23.20